sensor_id;sensor_type;location;lat;lon;timestamp;P1;durP1;ratioP1;P2;durP2;ratioP2
25972;SDS011;13765;51.166;4.466;2022-11-20T00:01:24;24.92;;;8.45;;
25972;SDS011;13765;51.166;4.466;2022-11-20T00:03:54;27.10;;;9.95;;
25972;SDS011;13765;51.166;4.466;2022-11-20T00:06:22;21.38;;;8.20;;
25972;SDS011;13765;51.166;4.466;2022-11-20T00:08:48;19.45;;;6.95;;
25972;SDS011;13765;51.166;4.466;2022-11-20T00:11:18;26.10;;;10.55;;
25972;SDS011;13765;51.166;4.466;2022-11-20T00:13:47;22.95;;;7.75;;
25972;SDS011;13765;51.166;4.466;2022-11-20T00:16:15;24.27;;;9.50;;
25972;SDS011;13765;51.166;4.466;2022-11-20T00:18:42;26.15;;;9.38;;
25972;SDS011;13765;51.166;4.466;2022-11-20T00:21:16;18.10;;;8.02;;
25972;SDS011;13765;51.166;4.466;2022-11-20T00:23:46;23.20;;;8.57;;
25972;SDS011;13765;51.166;4.466;2022-11-20T00:26:13;23.23;;;9.07;;
25972;SDS011;13765;51.166;4.466;2022-11-20T00:28:40;27.02;;;9.50;;
25972;SDS011;13765;51.166;4.466;2022-11-20T00:31:08;21.45;;;8.15;;
25972;SDS011;13765;51.166;4.466;2022-11-20T00:33:38;23.48;;;10.38;;
25972;SDS011;13765;51.166;4.466;2022-11-20T00:36:16;27.40;;;9.73;;
25972;SDS011;13765;51.166;4.466;2022-11-20T00:38:45;24.23;;;10.02;;
25972;SDS011;13765;51.166;4.466;2022-11-20T00:41:13;19.88;;;8.32;;
25972;SDS011;13765;51.166;4.466;2022-11-20T00:43:41;24.42;;;9.43;;
25972;SDS011;13765;51.166;4.466;2022-11-20T00:46:12;24.02;;;9.32;;
25972;SDS011;13765;51.166;4.466;2022-11-20T00:48:40;25.17;;;9.68;;
25972;SDS011;13765;51.166;4.466;2022-11-20T00:51:10;24.63;;;8.98;;
25972;SDS011;13765;51.166;4.466;2022-11-20T00:53:38;30.23;;;10.02;;
25972;SDS011;13765;51.166;4.466;2022-11-20T00:56:15;24.70;;;9.40;;
25972;SDS011;13765;51.166;4.466;2022-11-20T00:58:43;24.95;;;10.52;;
25972;SDS011;13765;51.166;4.466;2022-11-20T01:01:16;18.45;;;7.03;;
25972;SDS011;13765;51.166;4.466;2022-11-20T01:03:45;23.20;;;9.95;;
25972;SDS011;13765;51.166;4.466;2022-11-20T01:06:13;19.60;;;7.95;;
25972;SDS011;13765;51.166;4.466;2022-11-20T01:08:44;24.83;;;9.10;;
25972;SDS011;13765;51.166;4.466;2022-11-20T01:11:15;33.67;;;10.32;;
25972;SDS011;13765;51.166;4.466;2022-11-20T01:13:45;28.23;;;10.05;;
25972;SDS011;13765;51.166;4.466;2022-11-20T01:16:14;27.20;;;9.35;;
25972;SDS011;13765;51.166;4.466;2022-11-20T01:18:50;24.17;;;8.48;;
25972;SDS011;13765;51.166;4.466;2022-11-20T01:21:30;26.30;;;10.65;;
25972;SDS011;13765;51.166;4.466;2022-11-20T01:24:01;24.65;;;8.55;;
25972;SDS011;13765;51.166;4.466;2022-11-20T01:26:30;25.58;;;10.27;;
25972;SDS011;13765;51.166;4.466;2022-11-20T01:29:00;36.03;;;11.15;;
25972;SDS011;13765;51.166;4.466;2022-11-20T01:31:28;23.75;;;8.98;;
25972;SDS011;13765;51.166;4.466;2022-11-20T01:33:59;22.02;;;8.38;;
25972;SDS011;13765;51.166;4.466;2022-11-20T01:36:27;21.35;;;9.65;;
25972;SDS011;13765;51.166;4.466;2022-11-20T01:39:05;22.15;;;8.55;;
25972;SDS011;13765;51.166;4.466;2022-11-20T01:41:33;29.60;;;10.30;;
25972;SDS011;13765;51.166;4.466;2022-11-20T01:44:19;26.15;;;9.13;;
25972;SDS011;13765;51.166;4.466;2022-11-20T01:49:18;24.15;;;9.80;;
25972;SDS011;13765;51.166;4.466;2022-11-20T01:52:02;21.33;;;8.63;;
25972;SDS011;13765;51.166;4.466;2022-11-20T01:54:34;23.67;;;8.98;;
25972;SDS011;13765;51.166;4.466;2022-11-20T01:57:02;26.92;;;9.70;;
25972;SDS011;13765;51.166;4.466;2022-11-20T01:59:34;28.25;;;9.57;;
25972;SDS011;13765;51.166;4.466;2022-11-20T02:02:04;24.45;;;9.00;;
25972;SDS011;13765;51.166;4.466;2022-11-20T02:04:30;26.10;;;9.45;;
25972;SDS011;13765;51.166;4.466;2022-11-20T02:06:59;21.95;;;9.38;;
25972;SDS011;13765;51.166;4.466;2022-11-20T02:09:29;22.65;;;9.25;;
25972;SDS011;13765;51.166;4.466;2022-11-20T02:11:56;22.65;;;9.40;;
25972;SDS011;13765;51.166;4.466;2022-11-20T02:14:24;25.25;;;8.30;;
25972;SDS011;13765;51.166;4.466;2022-11-20T02:16:52;24.25;;;10.32;;
25972;SDS011;13765;51.166;4.466;2022-11-20T02:24:32;26.63;;;10.18;;
25972;SDS011;13765;51.166;4.466;2022-11-20T02:27:03;28.33;;;11.45;;
25972;SDS011;13765;51.166;4.466;2022-11-20T02:29:46;32.85;;;11.10;;
25972;SDS011;13765;51.166;4.466;2022-11-20T02:32:19;24.08;;;10.10;;
25972;SDS011;13765;51.166;4.466;2022-11-20T02:34:50;21.90;;;9.50;;
25972;SDS011;13765;51.166;4.466;2022-11-20T02:37:16;27.17;;;9.93;;
25972;SDS011;13765;51.166;4.466;2022-11-20T02:39:48;33.80;;;11.63;;
25972;SDS011;13765;51.166;4.466;2022-11-20T02:42:17;34.30;;;12.60;;
25972;SDS011;13765;51.166;4.466;2022-11-20T02:44:43;34.33;;;13.50;;
25972;SDS011;13765;51.166;4.466;2022-11-20T02:47:11;44.45;;;19.35;;
25972;SDS011;13765;51.166;4.466;2022-11-20T02:49:37;37.45;;;15.85;;
25972;SDS011;13765;51.166;4.466;2022-11-20T02:52:05;43.08;;;18.05;;
25972;SDS011;13765;51.166;4.466;2022-11-20T02:54:31;33.50;;;15.13;;
25972;SDS011;13765;51.166;4.466;2022-11-20T02:56:58;31.42;;;9.68;;
25972;SDS011;13765;51.166;4.466;2022-11-20T02:59:24;24.95;;;9.80;;
25972;SDS011;13765;51.166;4.466;2022-11-20T03:01:52;27.90;;;10.85;;
25972;SDS011;13765;51.166;4.466;2022-11-20T03:04:20;28.50;;;11.50;;
25972;SDS011;13765;51.166;4.466;2022-11-20T03:06:46;31.23;;;11.52;;
25972;SDS011;13765;51.166;4.466;2022-11-20T03:09:14;27.60;;;10.45;;
25972;SDS011;13765;51.166;4.466;2022-11-20T03:11:40;25.08;;;10.73;;
25972;SDS011;13765;51.166;4.466;2022-11-20T03:14:06;22.27;;;9.30;;
25972;SDS011;13765;51.166;4.466;2022-11-20T03:16:32;25.17;;;10.60;;
25972;SDS011;13765;51.166;4.466;2022-11-20T03:19:00;27.38;;;11.18;;
25972;SDS011;13765;51.166;4.466;2022-11-20T03:21:26;32.22;;;11.48;;
25972;SDS011;13765;51.166;4.466;2022-11-20T03:23:57;23.30;;;9.35;;
25972;SDS011;13765;51.166;4.466;2022-11-20T03:26:24;23.63;;;8.73;;
25972;SDS011;13765;51.166;4.466;2022-11-20T03:28:52;26.70;;;9.93;;
25972;SDS011;13765;51.166;4.466;2022-11-20T03:31:28;20.60;;;7.90;;
25972;SDS011;13765;51.166;4.466;2022-11-20T03:33:57;34.38;;;14.27;;
25972;SDS011;13765;51.166;4.466;2022-11-20T03:36:24;34.33;;;14.43;;
25972;SDS011;13765;51.166;4.466;2022-11-20T03:38:50;26.25;;;12.45;;
25972;SDS011;13765;51.166;4.466;2022-11-20T03:41:19;30.08;;;12.18;;
25972;SDS011;13765;51.166;4.466;2022-11-20T03:43:57;24.92;;;11.13;;
25972;SDS011;13765;51.166;4.466;2022-11-20T03:46:28;26.42;;;10.38;;
25972;SDS011;13765;51.166;4.466;2022-11-20T03:48:55;30.13;;;12.45;;
25972;SDS011;13765;51.166;4.466;2022-11-20T03:51:22;29.35;;;11.93;;
25972;SDS011;13765;51.166;4.466;2022-11-20T03:53:53;25.23;;;10.50;;
25972;SDS011;13765;51.166;4.466;2022-11-20T03:56:23;26.30;;;10.43;;
25972;SDS011;13765;51.166;4.466;2022-11-20T03:58:54;29.70;;;12.27;;
25972;SDS011;13765;51.166;4.466;2022-11-20T04:01:24;34.35;;;12.20;;
25972;SDS011;13765;51.166;4.466;2022-11-20T04:03:52;32.33;;;15.00;;
25972;SDS011;13765;51.166;4.466;2022-11-20T04:08:55;36.00;;;16.02;;
25972;SDS011;13765;51.166;4.466;2022-11-20T04:11:26;32.40;;;13.00;;
25972;SDS011;13765;51.166;4.466;2022-11-20T04:13:55;29.73;;;11.07;;
25972;SDS011;13765;51.166;4.466;2022-11-20T04:16:34;37.90;;;14.23;;
25972;SDS011;13765;51.166;4.466;2022-11-20T04:19:02;33.38;;;12.80;;
25972;SDS011;13765;51.166;4.466;2022-11-20T04:21:29;30.98;;;13.50;;
25972;SDS011;13765;51.166;4.466;2022-11-20T04:23:56;31.60;;;13.30;;
25972;SDS011;13765;51.166;4.466;2022-11-20T04:26:23;32.70;;;11.90;;
25972;SDS011;13765;51.166;4.466;2022-11-20T04:28:50;30.48;;;12.20;;
25972;SDS011;13765;51.166;4.466;2022-11-20T04:31:36;29.10;;;12.55;;
25972;SDS011;13765;51.166;4.466;2022-11-20T04:34:02;36.25;;;14.82;;
25972;SDS011;13765;51.166;4.466;2022-11-20T04:36:32;33.97;;;12.45;;
25972;SDS011;13765;51.166;4.466;2022-11-20T04:39:00;34.10;;;14.05;;
25972;SDS011;13765;51.166;4.466;2022-11-20T04:41:29;31.08;;;14.30;;
25972;SDS011;13765;51.166;4.466;2022-11-20T04:43:57;36.63;;;14.32;;
25972;SDS011;13765;51.166;4.466;2022-11-20T04:46:31;33.58;;;11.52;;
25972;SDS011;13765;51.166;4.466;2022-11-20T04:48:58;30.90;;;13.43;;
25972;SDS011;13765;51.166;4.466;2022-11-20T04:51:24;36.13;;;11.60;;
25972;SDS011;13765;51.166;4.466;2022-11-20T04:53:51;36.15;;;13.68;;
25972;SDS011;13765;51.166;4.466;2022-11-20T04:56:16;27.63;;;11.88;;
25972;SDS011;13765;51.166;4.466;2022-11-20T04:58:45;34.58;;;12.63;;
25972;SDS011;13765;51.166;4.466;2022-11-20T05:01:17;32.13;;;12.20;;
25972;SDS011;13765;51.166;4.466;2022-11-20T05:03:45;39.13;;;15.10;;
25972;SDS011;13765;51.166;4.466;2022-11-20T05:06:14;36.33;;;14.27;;
25972;SDS011;13765;51.166;4.466;2022-11-20T05:08:43;33.17;;;10.68;;
25972;SDS011;13765;51.166;4.466;2022-11-20T05:11:10;33.25;;;13.23;;
25972;SDS011;13765;51.166;4.466;2022-11-20T05:13:37;31.98;;;13.95;;
25972;SDS011;13765;51.166;4.466;2022-11-20T05:16:07;30.67;;;13.50;;
25972;SDS011;13765;51.166;4.466;2022-11-20T05:18:39;33.00;;;11.57;;
25972;SDS011;13765;51.166;4.466;2022-11-20T05:21:08;34.17;;;13.13;;
25972;SDS011;13765;51.166;4.466;2022-11-20T05:23:37;30.73;;;11.68;;
25972;SDS011;13765;51.166;4.466;2022-11-20T05:26:05;28.85;;;11.95;;
25972;SDS011;13765;51.166;4.466;2022-11-20T05:28:32;39.65;;;14.40;;
25972;SDS011;13765;51.166;4.466;2022-11-20T05:31:13;33.53;;;13.70;;
25972;SDS011;13765;51.166;4.466;2022-11-20T05:33:50;32.13;;;12.07;;
25972;SDS011;13765;51.166;4.466;2022-11-20T05:36:16;33.83;;;13.95;;
25972;SDS011;13765;51.166;4.466;2022-11-20T05:38:43;32.90;;;13.20;;
25972;SDS011;13765;51.166;4.466;2022-11-20T05:41:16;31.58;;;12.25;;
25972;SDS011;13765;51.166;4.466;2022-11-20T05:43:44;30.88;;;12.95;;
25972;SDS011;13765;51.166;4.466;2022-11-20T05:46:12;33.05;;;12.45;;
25972;SDS011;13765;51.166;4.466;2022-11-20T05:48:42;28.45;;;12.57;;
25972;SDS011;13765;51.166;4.466;2022-11-20T05:51:13;38.80;;;13.50;;
25972;SDS011;13765;51.166;4.466;2022-11-20T05:53:43;29.85;;;11.07;;
25972;SDS011;13765;51.166;4.466;2022-11-20T05:56:13;31.40;;;11.80;;
25972;SDS011;13765;51.166;4.466;2022-11-20T06:01:18;30.23;;;13.18;;
25972;SDS011;13765;51.166;4.466;2022-11-20T06:03:49;36.53;;;13.18;;
25972;SDS011;13765;51.166;4.466;2022-11-20T06:06:18;30.00;;;12.88;;
25972;SDS011;13765;51.166;4.466;2022-11-20T06:08:45;34.78;;;13.98;;
25972;SDS011;13765;51.166;4.466;2022-11-20T06:11:12;30.55;;;13.10;;
25972;SDS011;13765;51.166;4.466;2022-11-20T06:13:42;32.63;;;12.90;;
25972;SDS011;13765;51.166;4.466;2022-11-20T06:16:09;35.90;;;14.95;;
25972;SDS011;13765;51.166;4.466;2022-11-20T06:18:35;39.60;;;14.55;;
25972;SDS011;13765;51.166;4.466;2022-11-20T06:21:06;40.45;;;16.33;;
25972;SDS011;13765;51.166;4.466;2022-11-20T06:23:33;38.38;;;14.57;;
25972;SDS011;13765;51.166;4.466;2022-11-20T06:26:04;42.97;;;13.45;;
25972;SDS011;13765;51.166;4.466;2022-11-20T06:28:34;34.03;;;14.15;;
25972;SDS011;13765;51.166;4.466;2022-11-20T06:31:01;37.53;;;13.10;;
25972;SDS011;13765;51.166;4.466;2022-11-20T06:33:30;30.73;;;11.18;;
25972;SDS011;13765;51.166;4.466;2022-11-20T06:35:57;36.28;;;14.15;;
25972;SDS011;13765;51.166;4.466;2022-11-20T06:38:24;34.80;;;12.38;;
25972;SDS011;13765;51.166;4.466;2022-11-20T06:40:53;36.25;;;11.63;;
25972;SDS011;13765;51.166;4.466;2022-11-20T06:43:19;30.10;;;11.73;;
25972;SDS011;13765;51.166;4.466;2022-11-20T06:45:45;30.05;;;12.15;;
25972;SDS011;13765;51.166;4.466;2022-11-20T06:48:11;34.45;;;11.68;;
25972;SDS011;13765;51.166;4.466;2022-11-20T06:50:40;30.05;;;12.63;;
25972;SDS011;13765;51.166;4.466;2022-11-20T06:53:08;40.92;;;15.90;;
25972;SDS011;13765;51.166;4.466;2022-11-20T06:55:41;33.05;;;11.82;;
25972;SDS011;13765;51.166;4.466;2022-11-20T06:58:08;35.10;;;13.98;;
25972;SDS011;13765;51.166;4.466;2022-11-20T07:00:34;36.75;;;12.20;;
25972;SDS011;13765;51.166;4.466;2022-11-20T07:03:03;35.78;;;13.40;;
25972;SDS011;13765;51.166;4.466;2022-11-20T07:05:32;23.80;;;9.38;;
25972;SDS011;13765;51.166;4.466;2022-11-20T07:07:58;38.75;;;14.85;;
25972;SDS011;13765;51.166;4.466;2022-11-20T07:10:25;37.00;;;12.02;;
25972;SDS011;13765;51.166;4.466;2022-11-20T07:12:53;29.67;;;11.32;;
25972;SDS011;13765;51.166;4.466;2022-11-20T07:15:22;35.25;;;13.00;;
25972;SDS011;13765;51.166;4.466;2022-11-20T07:17:48;28.38;;;13.77;;
25972;SDS011;13765;51.166;4.466;2022-11-20T07:20:14;36.97;;;14.48;;
25972;SDS011;13765;51.166;4.466;2022-11-20T07:22:41;36.90;;;12.88;;
25972;SDS011;13765;51.166;4.466;2022-11-20T07:25:07;25.80;;;9.63;;
25972;SDS011;13765;51.166;4.466;2022-11-20T07:27:33;31.30;;;13.63;;
25972;SDS011;13765;51.166;4.466;2022-11-20T07:30:03;35.67;;;15.90;;
25972;SDS011;13765;51.166;4.466;2022-11-20T07:32:29;33.75;;;12.18;;
25972;SDS011;13765;51.166;4.466;2022-11-20T07:34:55;33.15;;;14.70;;
25972;SDS011;13765;51.166;4.466;2022-11-20T07:37:21;36.50;;;11.88;;
25972;SDS011;13765;51.166;4.466;2022-11-20T07:39:46;32.70;;;13.20;;
25972;SDS011;13765;51.166;4.466;2022-11-20T07:42:15;33.75;;;12.57;;
25972;SDS011;13765;51.166;4.466;2022-11-20T07:44:42;33.42;;;11.95;;
25972;SDS011;13765;51.166;4.466;2022-11-20T07:47:10;41.17;;;12.13;;
25972;SDS011;13765;51.166;4.466;2022-11-20T07:49:36;35.55;;;11.40;;
25972;SDS011;13765;51.166;4.466;2022-11-20T07:52:05;33.50;;;11.55;;
25972;SDS011;13765;51.166;4.466;2022-11-20T07:54:31;32.90;;;13.07;;
25972;SDS011;13765;51.166;4.466;2022-11-20T07:56:59;36.60;;;13.27;;
25972;SDS011;13765;51.166;4.466;2022-11-20T07:59:27;31.48;;;12.85;;
25972;SDS011;13765;51.166;4.466;2022-11-20T08:01:52;30.25;;;12.43;;
25972;SDS011;13765;51.166;4.466;2022-11-20T08:04:18;25.98;;;12.30;;
25972;SDS011;13765;51.166;4.466;2022-11-20T08:06:48;29.58;;;13.07;;
25972;SDS011;13765;51.166;4.466;2022-11-20T08:09:17;31.50;;;11.50;;
25972;SDS011;13765;51.166;4.466;2022-11-20T08:11:42;30.85;;;12.27;;
25972;SDS011;13765;51.166;4.466;2022-11-20T08:14:26;32.05;;;12.27;;
25972;SDS011;13765;51.166;4.466;2022-11-20T08:16:52;31.17;;;11.30;;
25972;SDS011;13765;51.166;4.466;2022-11-20T08:19:18;32.03;;;14.75;;
25972;SDS011;13765;51.166;4.466;2022-11-20T08:21:44;32.42;;;12.52;;
25972;SDS011;13765;51.166;4.466;2022-11-20T08:24:10;34.03;;;13.95;;
25972;SDS011;13765;51.166;4.466;2022-11-20T08:26:37;34.25;;;11.43;;
25972;SDS011;13765;51.166;4.466;2022-11-20T08:29:04;37.30;;;13.07;;
25972;SDS011;13765;51.166;4.466;2022-11-20T08:31:30;36.42;;;12.93;;
25972;SDS011;13765;51.166;4.466;2022-11-20T08:33:56;34.63;;;11.93;;
25972;SDS011;13765;51.166;4.466;2022-11-20T08:36:25;28.42;;;10.80;;
25972;SDS011;13765;51.166;4.466;2022-11-20T08:38:52;35.55;;;13.43;;
25972;SDS011;13765;51.166;4.466;2022-11-20T08:41:19;30.63;;;11.80;;
25972;SDS011;13765;51.166;4.466;2022-11-20T08:44:07;42.92;;;11.65;;
25972;SDS011;13765;51.166;4.466;2022-11-20T08:46:34;27.75;;;11.73;;
25972;SDS011;13765;51.166;4.466;2022-11-20T08:49:02;35.33;;;13.23;;
25972;SDS011;13765;51.166;4.466;2022-11-20T08:51:29;36.50;;;11.77;;
25972;SDS011;13765;51.166;4.466;2022-11-20T08:53:55;27.30;;;11.32;;
25972;SDS011;13765;51.166;4.466;2022-11-20T08:56:21;36.42;;;11.68;;
25972;SDS011;13765;51.166;4.466;2022-11-20T08:58:49;34.80;;;12.55;;
25972;SDS011;13765;51.166;4.466;2022-11-20T09:01:17;36.67;;;12.80;;
25972;SDS011;13765;51.166;4.466;2022-11-20T09:03:43;33.85;;;12.07;;
25972;SDS011;13765;51.166;4.466;2022-11-20T09:06:09;31.90;;;12.55;;
25972;SDS011;13765;51.166;4.466;2022-11-20T09:08:35;36.85;;;14.30;;
25972;SDS011;13765;51.166;4.466;2022-11-20T09:11:01;32.58;;;13.13;;
25972;SDS011;13765;51.166;4.466;2022-11-20T09:13:27;39.50;;;13.45;;
25972;SDS011;13765;51.166;4.466;2022-11-20T09:15:59;38.80;;;13.57;;
25972;SDS011;13765;51.166;4.466;2022-11-20T09:18:30;34.38;;;12.82;;
25972;SDS011;13765;51.166;4.466;2022-11-20T09:20:59;36.50;;;13.30;;
25972;SDS011;13765;51.166;4.466;2022-11-20T09:23:25;35.53;;;12.77;;
25972;SDS011;13765;51.166;4.466;2022-11-20T09:25:56;41.00;;;14.32;;
25972;SDS011;13765;51.166;4.466;2022-11-20T09:28:24;34.70;;;14.35;;
25972;SDS011;13765;51.166;4.466;2022-11-20T09:30:55;32.35;;;11.07;;
25972;SDS011;13765;51.166;4.466;2022-11-20T09:33:22;32.60;;;10.63;;
25972;SDS011;13765;51.166;4.466;2022-11-20T09:35:47;32.85;;;12.60;;
25972;SDS011;13765;51.166;4.466;2022-11-20T09:38:15;32.13;;;12.20;;
25972;SDS011;13765;51.166;4.466;2022-11-20T09:40:49;28.65;;;10.15;;
25972;SDS011;13765;51.166;4.466;2022-11-20T09:43:32;33.55;;;11.52;;
25972;SDS011;13765;51.166;4.466;2022-11-20T09:46:13;37.83;;;12.50;;
25972;SDS011;13765;51.166;4.466;2022-11-20T09:48:56;34.90;;;12.65;;
25972;SDS011;13765;51.166;4.466;2022-11-20T09:54:33;27.48;;;11.60;;
25972;SDS011;13765;51.166;4.466;2022-11-20T09:57:14;35.47;;;10.43;;
25972;SDS011;13765;51.166;4.466;2022-11-20T09:59:50;43.72;;;14.43;;
25972;SDS011;13765;51.166;4.466;2022-11-20T10:05:39;39.00;;;13.63;;
25972;SDS011;13765;51.166;4.466;2022-11-20T10:08:04;38.78;;;14.10;;
25972;SDS011;13765;51.166;4.466;2022-11-20T10:10:56;44.45;;;12.48;;
25972;SDS011;13765;51.166;4.466;2022-11-20T10:13:27;36.42;;;12.35;;
25972;SDS011;13765;51.166;4.466;2022-11-20T10:16:11;42.25;;;13.10;;
25972;SDS011;13765;51.166;4.466;2022-11-20T10:19:10;38.35;;;13.20;;
25972;SDS011;13765;51.166;4.466;2022-11-20T10:21:55;39.10;;;15.02;;
25972;SDS011;13765;51.166;4.466;2022-11-20T10:30:10;48.10;;;13.50;;
25972;SDS011;13765;51.166;4.466;2022-11-20T10:32:43;36.28;;;11.70;;
25972;SDS011;13765;51.166;4.466;2022-11-20T10:38:00;41.78;;;14.35;;
25972;SDS011;13765;51.166;4.466;2022-11-20T10:43:21;41.70;;;13.90;;
25972;SDS011;13765;51.166;4.466;2022-11-20T10:46:08;50.30;;;15.23;;
25972;SDS011;13765;51.166;4.466;2022-11-20T10:48:49;37.35;;;12.95;;
25972;SDS011;13765;51.166;4.466;2022-11-20T10:57:05;44.78;;;15.93;;
25972;SDS011;13765;51.166;4.466;2022-11-20T11:02:21;44.22;;;15.40;;
25972;SDS011;13765;51.166;4.466;2022-11-20T11:04:58;37.55;;;12.38;;
25972;SDS011;13765;51.166;4.466;2022-11-20T11:07:38;37.30;;;12.75;;
25972;SDS011;13765;51.166;4.466;2022-11-20T11:10:13;45.83;;;15.57;;
25972;SDS011;13765;51.166;4.466;2022-11-20T11:12:47;46.40;;;14.93;;
25972;SDS011;13765;51.166;4.466;2022-11-20T11:18:11;38.60;;;13.23;;
25972;SDS011;13765;51.166;4.466;2022-11-20T11:20:52;45.13;;;14.23;;
25972;SDS011;13765;51.166;4.466;2022-11-20T11:23:28;39.35;;;13.93;;
25972;SDS011;13765;51.166;4.466;2022-11-20T11:26:07;43.47;;;13.13;;
25972;SDS011;13765;51.166;4.466;2022-11-20T11:28:54;40.90;;;15.05;;
25972;SDS011;13765;51.166;4.466;2022-11-20T11:31:32;43.50;;;14.23;;
25972;SDS011;13765;51.166;4.466;2022-11-20T11:34:05;40.90;;;14.05;;
25972;SDS011;13765;51.166;4.466;2022-11-20T11:37:05;47.97;;;15.70;;
25972;SDS011;13765;51.166;4.466;2022-11-20T11:39:41;43.80;;;13.32;;
25972;SDS011;13765;51.166;4.466;2022-11-20T11:42:09;33.17;;;12.07;;
25972;SDS011;13765;51.166;4.466;2022-11-20T11:44:44;35.28;;;12.40;;
25972;SDS011;13765;51.166;4.466;2022-11-20T11:47:30;41.15;;;13.68;;
25972;SDS011;13765;51.166;4.466;2022-11-20T11:55:07;40.55;;;12.75;;
25972;SDS011;13765;51.166;4.466;2022-11-20T11:57:45;38.15;;;12.75;;
25972;SDS011;13765;51.166;4.466;2022-11-20T12:00:35;31.63;;;10.90;;
25972;SDS011;13765;51.166;4.466;2022-11-20T12:05:48;36.47;;;11.30;;
25972;SDS011;13765;51.166;4.466;2022-11-20T12:08:21;37.08;;;10.50;;
25972;SDS011;13765;51.166;4.466;2022-11-20T12:13:42;32.22;;;11.23;;
25972;SDS011;13765;51.166;4.466;2022-11-20T12:16:42;34.40;;;10.98;;
25972;SDS011;13765;51.166;4.466;2022-11-20T12:19:11;33.97;;;12.00;;
25972;SDS011;13765;51.166;4.466;2022-11-20T12:46:18;27.30;;;9.25;;
25972;SDS011;13765;51.166;4.466;2022-11-20T13:08:20;7.80;;;2.65;;
25972;SDS011;13765;51.166;4.466;2022-11-20T13:11:01;13.80;;;3.15;;
25972;SDS011;13765;51.166;4.466;2022-11-20T13:18:45;17.60;;;3.60;;
25972;SDS011;13765;51.166;4.466;2022-11-20T13:21:18;12.27;;;3.70;;
25972;SDS011;13765;51.166;4.466;2022-11-20T13:24:05;11.00;;;4.10;;
25972;SDS011;13765;51.166;4.466;2022-11-20T13:26:32;14.60;;;4.55;;
25972;SDS011;13765;51.166;4.466;2022-11-20T13:29:00;12.73;;;4.05;;
25972;SDS011;13765;51.166;4.466;2022-11-20T13:31:36;12.25;;;4.30;;
25972;SDS011;13765;51.166;4.466;2022-11-20T13:34:10;11.60;;;4.10;;
25972;SDS011;13765;51.166;4.466;2022-11-20T13:39:23;10.65;;;3.17;;
25972;SDS011;13765;51.166;4.466;2022-11-20T13:41:58;4.85;;;2.35;;
25972;SDS011;13765;51.166;4.466;2022-11-20T13:44:30;11.97;;;3.87;;
25972;SDS011;13765;51.166;4.466;2022-11-20T13:47:02;12.10;;;2.97;;
25972;SDS011;13765;51.166;4.466;2022-11-20T13:49:32;12.40;;;3.78;;
25972;SDS011;13765;51.166;4.466;2022-11-20T13:52:39;8.35;;;3.08;;
25972;SDS011;13765;51.166;4.466;2022-11-20T14:00:27;9.63;;;3.30;;
25972;SDS011;13765;51.166;4.466;2022-11-20T14:05:31;13.25;;;3.97;;
25972;SDS011;13765;51.166;4.466;2022-11-20T14:08:04;9.15;;;3.42;;
25972;SDS011;13765;51.166;4.466;2022-11-20T14:10:36;8.50;;;2.95;;
25972;SDS011;13765;51.166;4.466;2022-11-20T14:13:18;8.38;;;3.67;;
25972;SDS011;13765;51.166;4.466;2022-11-20T14:15:46;15.73;;;6.22;;
25972;SDS011;13765;51.166;4.466;2022-11-20T14:18:14;12.38;;;4.60;;
25972;SDS011;13765;51.166;4.466;2022-11-20T14:20:52;6.75;;;3.30;;
25972;SDS011;13765;51.166;4.466;2022-11-20T14:23:25;7.90;;;3.13;;
25972;SDS011;13765;51.166;4.466;2022-11-20T14:25:53;10.80;;;3.13;;
25972;SDS011;13765;51.166;4.466;2022-11-20T14:28:29;6.32;;;2.88;;
25972;SDS011;13765;51.166;4.466;2022-11-20T14:30:56;11.25;;;3.78;;
25972;SDS011;13765;51.166;4.466;2022-11-20T14:33:26;7.45;;;3.10;;
25972;SDS011;13765;51.166;4.466;2022-11-20T14:35:55;10.80;;;3.42;;
25972;SDS011;13765;51.166;4.466;2022-11-20T14:38:28;6.00;;;2.83;;
25972;SDS011;13765;51.166;4.466;2022-11-20T14:41:06;7.07;;;2.67;;
25972;SDS011;13765;51.166;4.466;2022-11-20T14:43:45;7.55;;;3.30;;
25972;SDS011;13765;51.166;4.466;2022-11-20T14:46:24;8.07;;;2.95;;
25972;SDS011;13765;51.166;4.466;2022-11-20T14:48:53;5.05;;;2.53;;
25972;SDS011;13765;51.166;4.466;2022-11-20T14:54:09;9.02;;;3.10;;
25972;SDS011;13765;51.166;4.466;2022-11-20T14:56:37;7.00;;;3.20;;
25972;SDS011;13765;51.166;4.466;2022-11-20T14:59:06;7.90;;;2.97;;
25972;SDS011;13765;51.166;4.466;2022-11-20T15:01:35;9.25;;;2.50;;
25972;SDS011;13765;51.166;4.466;2022-11-20T15:04:06;7.55;;;2.72;;
25972;SDS011;13765;51.166;4.466;2022-11-20T15:06:32;7.15;;;3.08;;
25972;SDS011;13765;51.166;4.466;2022-11-20T15:08:58;7.68;;;3.22;;
25972;SDS011;13765;51.166;4.466;2022-11-20T15:11:28;5.55;;;2.85;;
25972;SDS011;13765;51.166;4.466;2022-11-20T15:13:57;4.50;;;2.30;;
25972;SDS011;13765;51.166;4.466;2022-11-20T15:16:27;8.05;;;4.30;;
25972;SDS011;13765;51.166;4.466;2022-11-20T15:18:53;5.07;;;2.13;;
25972;SDS011;13765;51.166;4.466;2022-11-20T15:21:22;4.90;;;2.78;;
25972;SDS011;13765;51.166;4.466;2022-11-20T15:23:48;6.40;;;2.63;;
25972;SDS011;13765;51.166;4.466;2022-11-20T15:26:18;4.25;;;2.55;;
25972;SDS011;13765;51.166;4.466;2022-11-20T15:28:50;8.77;;;3.33;;
25972;SDS011;13765;51.166;4.466;2022-11-20T15:31:18;4.43;;;2.47;;
25972;SDS011;13765;51.166;4.466;2022-11-20T15:33:46;5.03;;;2.85;;
25972;SDS011;13765;51.166;4.466;2022-11-20T15:36:12;4.55;;;2.72;;
25972;SDS011;13765;51.166;4.466;2022-11-20T15:38:38;9.63;;;3.17;;
25972;SDS011;13765;51.166;4.466;2022-11-20T15:41:04;13.45;;;3.38;;
25972;SDS011;13765;51.166;4.466;2022-11-20T15:43:31;9.55;;;3.95;;
25972;SDS011;13765;51.166;4.466;2022-11-20T15:45:59;7.03;;;2.88;;
25972;SDS011;13765;51.166;4.466;2022-11-20T15:48:30;5.25;;;2.83;;
25972;SDS011;13765;51.166;4.466;2022-11-20T15:53:37;13.77;;;3.20;;
25972;SDS011;13765;51.166;4.466;2022-11-20T15:56:07;8.73;;;3.45;;
25972;SDS011;13765;51.166;4.466;2022-11-20T15:58:38;12.70;;;4.10;;
25972;SDS011;13765;51.166;4.466;2022-11-20T16:01:08;12.05;;;3.30;;
25972;SDS011;13765;51.166;4.466;2022-11-20T16:03:46;7.43;;;3.40;;
25972;SDS011;13765;51.166;4.466;2022-11-20T16:06:12;13.50;;;3.50;;
25972;SDS011;13765;51.166;4.466;2022-11-20T16:08:41;9.93;;;4.00;;
25972;SDS011;13765;51.166;4.466;2022-11-20T16:11:08;13.07;;;3.75;;
25972;SDS011;13765;51.166;4.466;2022-11-20T16:13:42;9.93;;;3.28;;
25972;SDS011;13765;51.166;4.466;2022-11-20T16:16:30;10.55;;;4.28;;
25972;SDS011;13765;51.166;4.466;2022-11-20T16:18:59;11.82;;;4.97;;
25972;SDS011;13765;51.166;4.466;2022-11-20T16:21:27;16.75;;;4.68;;
25972;SDS011;13765;51.166;4.466;2022-11-20T16:23:59;7.72;;;4.10;;
25972;SDS011;13765;51.166;4.466;2022-11-20T16:26:26;20.30;;;4.95;;
25972;SDS011;13765;51.166;4.466;2022-11-20T16:28:53;8.40;;;3.35;;
25972;SDS011;13765;51.166;4.466;2022-11-20T16:31:19;21.52;;;5.07;;
25972;SDS011;13765;51.166;4.466;2022-11-20T16:33:49;15.25;;;4.40;;
25972;SDS011;13765;51.166;4.466;2022-11-20T16:36:19;10.23;;;3.70;;
25972;SDS011;13765;51.166;4.466;2022-11-20T16:38:52;13.32;;;3.70;;
25972;SDS011;13765;51.166;4.466;2022-11-20T16:41:19;7.60;;;3.05;;
25972;SDS011;13765;51.166;4.466;2022-11-20T16:43:46;18.73;;;5.65;;
25972;SDS011;13765;51.166;4.466;2022-11-20T16:46:20;12.70;;;3.22;;